createdAt,value
2023-02-15T00:01:54.288Z,34.15
2023-02-15T00:04:23.779Z,32.58
2023-02-15T00:06:51.056Z,33.53
2023-02-15T00:09:17.679Z,34.75
2023-02-15T00:11:46.001Z,31.88
2023-02-15T00:14:15.594Z,32.13
2023-02-15T00:16:44.036Z,33.05
2023-02-15T00:19:12.544Z,33.85
2023-02-15T00:21:40.753Z,33.65
2023-02-15T00:24:09.997Z,32.50
2023-02-15T00:26:39.012Z,33.50
2023-02-15T00:29:05.735Z,33.47
2023-02-15T00:31:34.359Z,33.17
2023-02-15T00:34:05.970Z,33.10
2023-02-15T00:36:33.004Z,33.87
2023-02-15T00:38:59.960Z,33.40
2023-02-15T00:41:26.718Z,34.75
2023-02-15T00:43:53.273Z,32.08
2023-02-15T00:46:19.900Z,32.67
2023-02-15T00:48:46.624Z,33.80
2023-02-15T00:51:13.285Z,32.92
2023-02-15T00:53:39.861Z,32.22
2023-02-15T00:56:06.437Z,32.33
2023-02-15T00:58:33.169Z,33.15
2023-02-15T01:01:11.614Z,33.15
2023-02-15T01:03:38.895Z,31.95
2023-02-15T01:06:06.020Z,31.60
2023-02-15T01:08:32.613Z,30.55
2023-02-15T01:11:08.353Z,30.17
2023-02-15T01:13:35.824Z,31.52
2023-02-15T01:16:04.300Z,30.67
2023-02-15T01:18:31.929Z,30.10
2023-02-15T01:20:58.679Z,30.92
2023-02-15T01:23:25.356Z,31.15
2023-02-15T01:25:51.946Z,29.65
2023-02-15T01:28:18.620Z,29.88
2023-02-15T01:30:45.337Z,29.55
2023-02-15T01:33:18.611Z,30.77
2023-02-15T01:35:48.483Z,31.35
2023-02-15T01:38:15.376Z,30.23
2023-02-15T01:40:42.383Z,30.63
2023-02-15T01:43:13.216Z,30.35
2023-02-15T01:45:40.236Z,29.75
2023-02-15T01:48:06.800Z,28.50
2023-02-15T01:50:44.035Z,30.48
2023-02-15T01:53:26.499Z,29.05
2023-02-15T01:56:06.240Z,29.67
2023-02-15T01:58:34.975Z,29.50
2023-02-15T02:01:04.549Z,31.63
2023-02-15T02:03:54.997Z,29.92
2023-02-15T02:06:22.290Z,28.88
2023-02-15T02:08:49.805Z,32.00
2023-02-15T02:11:17.093Z,32.47
2023-02-15T02:13:45.566Z,33.55
2023-02-15T02:16:16.172Z,33.10
2023-02-15T02:18:51.070Z,31.58
2023-02-15T02:21:50.641Z,32.10
2023-02-15T02:25:05.294Z,32.05
2023-02-15T02:27:56.755Z,32.80
2023-02-15T02:30:23.474Z,32.33
2023-02-15T02:33:15.545Z,31.52
2023-02-15T02:36:07.741Z,33.58
2023-02-15T02:38:53.127Z,31.73
2023-02-15T02:41:45.686Z,30.95
2023-02-15T02:44:30.092Z,34.08
2023-02-15T02:47:12.988Z,32.80
2023-02-15T02:49:42.545Z,34.72
2023-02-15T02:52:48.057Z,31.92
2023-02-15T02:55:26.085Z,33.38
2023-02-15T02:57:58.870Z,33.63
2023-02-15T03:00:28.499Z,33.88
2023-02-15T03:03:06.052Z,34.53
2023-02-15T03:05:35.234Z,31.58
2023-02-15T03:08:07.036Z,33.88
2023-02-15T03:10:35.900Z,34.97
2023-02-15T03:13:03.376Z,34.58
2023-02-15T03:15:56.547Z,36.35
2023-02-15T03:18:29.836Z,35.28
2023-02-15T03:20:58.537Z,37.50
2023-02-15T03:23:28.986Z,36.90
2023-02-15T03:26:04.495Z,35.45
2023-02-15T03:28:46.601Z,37.40
2023-02-15T03:31:16.008Z,41.08
2023-02-15T03:33:51.025Z,39.17
2023-02-15T03:36:57.148Z,44.88
2023-02-15T03:40:26.130Z,48.05
2023-02-15T03:43:03.105Z,49.97
2023-02-15T03:45:34.287Z,52.95
2023-02-15T03:48:02.695Z,53.55
2023-02-15T03:50:51.325Z,56.08
2023-02-15T03:53:22.212Z,55.50
2023-02-15T03:55:55.174Z,56.50
2023-02-15T03:58:40.885Z,56.40
2023-02-15T04:01:50.256Z,57.63
2023-02-15T04:04:20.581Z,56.03
2023-02-15T04:06:47.455Z,57.45
2023-02-15T04:09:33.092Z,59.17
2023-02-15T04:11:59.912Z,56.10
2023-02-15T04:14:45.324Z,56.72
2023-02-15T04:17:11.954Z,57.03
2023-02-15T04:19:58.060Z,56.75
2023-02-15T04:22:42.999Z,55.58
2023-02-15T04:25:13.532Z,56.92
2023-02-15T04:27:54.674Z,57.72
2023-02-15T04:30:24.359Z,58.88
2023-02-15T04:32:51.213Z,55.63
2023-02-15T04:35:18.569Z,55.58
2023-02-15T04:37:45.681Z,55.90
2023-02-15T04:40:14.430Z,56.03
2023-02-15T04:42:41.160Z,54.45
2023-02-15T04:45:08.563Z,53.20
2023-02-15T04:47:35.473Z,53.08
2023-02-15T04:50:02.087Z,54.20
2023-02-15T04:52:28.697Z,54.17
2023-02-15T04:54:55.317Z,56.20
2023-02-15T04:57:21.881Z,57.47
2023-02-15T04:59:48.465Z,53.20
2023-02-15T05:02:15.101Z,54.90
2023-02-15T05:04:41.641Z,54.22
2023-02-15T05:07:08.274Z,54.67
2023-02-15T05:09:34.866Z,55.92
2023-02-15T05:12:01.661Z,55.70
2023-02-15T05:14:28.377Z,56.42
2023-02-15T05:16:55.095Z,57.78
2023-02-15T05:19:21.908Z,59.17
2023-02-15T05:21:48.472Z,58.35
2023-02-15T05:24:33.547Z,53.75
2023-02-15T05:27:19.007Z,53.40
2023-02-15T05:29:45.638Z,57.38
2023-02-15T05:32:14.548Z,53.53
2023-02-15T05:34:41.336Z,55.15
2023-02-15T05:37:08.785Z,56.70
2023-02-15T05:39:35.400Z,55.03
2023-02-15T05:42:02.271Z,49.83
2023-02-15T05:44:28.962Z,47.63
2023-02-15T05:46:55.536Z,49.72
2023-02-15T05:49:22.176Z,47.78
2023-02-15T05:51:48.762Z,49.70
2023-02-15T05:54:15.409Z,51.05
2023-02-15T05:56:41.971Z,50.67
2023-02-15T05:59:08.639Z,47.50
2023-02-15T06:01:35.345Z,54.60
2023-02-15T06:04:01.949Z,51.90
2023-02-15T06:06:28.546Z,53.58
2023-02-15T06:08:55.120Z,48.80
2023-02-15T06:11:21.762Z,49.25
2023-02-15T06:13:48.367Z,47.85
2023-02-15T06:16:16.898Z,50.35
2023-02-15T06:18:44.095Z,46.45
2023-02-15T06:21:10.821Z,47.97
2023-02-15T06:23:37.385Z,44.20
2023-02-15T06:26:04.384Z,42.83
2023-02-15T06:28:31.346Z,42.10
2023-02-15T06:30:58.144Z,42.47
2023-02-15T06:33:24.852Z,43.78
2023-02-15T06:35:51.425Z,44.10
2023-02-15T06:38:18.613Z,44.63
2023-02-15T06:40:45.248Z,43.88
2023-02-15T06:43:11.861Z,48.20
2023-02-15T06:45:38.508Z,45.10
2023-02-15T06:48:07.904Z,44.83
2023-02-15T06:50:35.618Z,44.72
2023-02-15T06:53:02.204Z,43.40
2023-02-15T06:55:28.984Z,41.95
2023-02-15T06:57:55.647Z,43.10
2023-02-15T07:00:24.053Z,39.33
2023-02-15T07:02:58.898Z,39.88
2023-02-15T07:05:31.622Z,39.95
2023-02-15T07:07:59.820Z,41.03
2023-02-15T07:10:27.261Z,41.40
2023-02-15T07:12:54.312Z,43.42
2023-02-15T07:15:22.883Z,41.53
2023-02-15T07:17:50.114Z,41.70
2023-02-15T07:20:19.902Z,40.75
2023-02-15T07:22:47.008Z,40.40
2023-02-15T07:25:14.185Z,42.28
2023-02-15T07:27:41.559Z,41.75
2023-02-15T07:30:10.897Z,40.50
2023-02-15T07:32:40.161Z,43.65
2023-02-15T07:35:06.762Z,44.10
2023-02-15T07:37:33.445Z,43.58
2023-02-15T07:40:00.097Z,40.53
2023-02-15T07:42:26.703Z,40.40
2023-02-15T07:44:53.655Z,42.88
2023-02-15T07:47:20.246Z,42.17
2023-02-15T07:49:46.809Z,43.03
2023-02-15T07:52:13.401Z,42.05
2023-02-15T07:54:39.966Z,41.30
2023-02-15T07:57:06.639Z,41.42
2023-02-15T07:59:33.216Z,37.80
2023-02-15T08:01:59.823Z,35.67
2023-02-15T08:04:26.446Z,35.45
2023-02-15T08:06:55.453Z,35.08
2023-02-15T08:09:22.902Z,36.75
2023-02-15T08:11:49.594Z,36.55
2023-02-15T08:14:18.697Z,36.85
2023-02-15T08:16:50.626Z,37.35
2023-02-15T08:19:25.562Z,35.97
2023-02-15T08:22:06.600Z,35.10
2023-02-15T08:24:35.856Z,34.75
2023-02-15T08:27:06.421Z,36.08
2023-02-15T08:29:34.249Z,35.80
2023-02-15T08:32:06.592Z,34.55
2023-02-15T08:37:01.968Z,32.95
2023-02-15T08:39:28.839Z,32.78
2023-02-15T08:41:55.730Z,36.55
2023-02-15T08:44:23.465Z,34.13
2023-02-15T08:46:50.619Z,34.35
2023-02-15T08:49:20.524Z,32.97
2023-02-15T08:51:48.051Z,34.10
2023-02-15T08:54:17.100Z,32.33
2023-02-15T08:56:46.585Z,32.15
2023-02-15T08:59:19.209Z,32.88
2023-02-15T09:01:48.585Z,32.85
2023-02-15T09:04:16.753Z,32.55
2023-02-15T09:06:47.942Z,32.58
2023-02-15T09:09:16.053Z,32.33
2023-02-15T09:11:44.437Z,34.50
2023-02-15T09:14:21.964Z,33.78
2023-02-15T09:16:50.450Z,33.92
2023-02-15T09:19:18.985Z,32.90
2023-02-15T09:21:45.982Z,32.83
2023-02-15T09:24:15.373Z,32.97
2023-02-15T09:26:45.236Z,32.22
2023-02-15T09:29:13.336Z,32.38
2023-02-15T09:31:46.294Z,32.67
2023-02-15T09:34:14.981Z,34.17
2023-02-15T09:36:42.482Z,34.25
2023-02-15T09:39:24.686Z,33.45
2023-02-15T09:42:18.716Z,35.88
2023-02-15T09:45:05.500Z,35.55
2023-02-15T09:47:51.470Z,35.72
2023-02-15T09:50:43.109Z,34.35
2023-02-15T09:53:28.780Z,34.25
2023-02-15T09:56:31.144Z,34.83
2023-02-15T09:59:08.049Z,34.33
2023-02-15T10:02:02.030Z,36.85
2023-02-15T10:04:59.788Z,37.28
2023-02-15T10:07:38.074Z,36.70
2023-02-15T10:10:29.199Z,35.60
2023-02-15T10:13:21.661Z,37.10
2023-02-15T10:16:20.613Z,36.60
2023-02-15T10:18:59.510Z,36.38
2023-02-15T10:21:41.460Z,37.88
2023-02-15T10:24:21.869Z,38.38
2023-02-15T10:26:52.607Z,38.72
2023-02-15T10:29:37.489Z,38.47
2023-02-15T10:32:31.512Z,38.00
2023-02-15T10:35:25.279Z,38.28
2023-02-15T10:38:22.223Z,39.10
2023-02-15T10:41:21.160Z,39.78
2023-02-15T10:43:53.426Z,38.42
2023-02-15T10:47:01.029Z,40.30
2023-02-15T10:49:45.931Z,38.70
2023-02-15T10:52:36.484Z,38.92
2023-02-15T10:55:21.247Z,38.40
2023-02-15T10:58:30.199Z,39.47
2023-02-15T11:01:39.309Z,39.88
2023-02-15T11:04:05.827Z,37.88
2023-02-15T11:06:36.040Z,36.80
2023-02-15T11:09:09.868Z,36.03
2023-02-15T11:11:45.969Z,35.67
2023-02-15T11:14:34.581Z,37.28
2023-02-15T11:17:08.051Z,35.20
2023-02-15T11:20:01.638Z,36.92
2023-02-15T11:22:28.995Z,36.70
2023-02-15T11:24:55.588Z,37.50
2023-02-15T11:27:27.866Z,36.53
2023-02-15T11:32:32.440Z,36.70
2023-02-15T11:35:12.644Z,35.20
2023-02-15T11:37:52.039Z,35.67
2023-02-15T11:40:49.860Z,34.97
2023-02-15T11:43:49.104Z,34.53
2023-02-15T11:46:16.060Z,33.15
2023-02-15T11:48:43.650Z,33.28
2023-02-15T11:51:15.517Z,34.75
2023-02-15T11:53:42.185Z,32.65
2023-02-15T11:56:16.198Z,33.40
2023-02-15T11:58:56.965Z,34.08
2023-02-15T12:01:39.404Z,33.15
2023-02-15T12:06:39.756Z,32.50
2023-02-15T12:09:34.702Z,33.33
2023-02-15T12:12:36.854Z,31.63
2023-02-15T12:15:07.312Z,32.13
2023-02-15T12:17:39.083Z,31.58
2023-02-15T12:20:29.016Z,30.30
2023-02-15T12:23:04.686Z,31.88
2023-02-15T12:25:58.196Z,33.72
2023-02-15T12:28:32.543Z,31.40
2023-02-15T12:30:59.942Z,32.33
2023-02-15T12:33:28.714Z,29.98
2023-02-15T12:36:18.545Z,30.08
2023-02-15T12:39:04.416Z,28.17
2023-02-15T12:41:31.220Z,26.77
2023-02-15T12:44:20.014Z,27.63
2023-02-15T12:47:04.724Z,27.13
2023-02-15T12:49:34.093Z,27.17
2023-02-15T12:52:03.779Z,27.45
2023-02-15T12:54:41.189Z,26.65
2023-02-15T12:57:23.626Z,24.90
2023-02-15T13:02:26.402Z,23.33
2023-02-15T13:04:54.947Z,23.75
2023-02-15T13:07:22.337Z,24.05
2023-02-15T13:09:50.693Z,24.17
2023-02-15T13:12:28.559Z,25.27
2023-02-15T13:14:57.084Z,23.63
2023-02-15T13:17:31.081Z,23.65
2023-02-15T13:20:17.604Z,24.00
2023-02-15T13:22:49.026Z,22.67
2023-02-15T13:25:20.667Z,22.40
2023-02-15T13:27:51.438Z,22.95
2023-02-15T13:30:21.094Z,21.95
2023-02-15T13:32:51.821Z,21.38
2023-02-15T13:35:20.099Z,21.23
2023-02-15T13:37:46.626Z,21.33
2023-02-15T13:40:28.237Z,21.20
2023-02-15T13:43:16.269Z,20.20
2023-02-15T13:46:02.566Z,22.38
2023-02-15T13:49:20.122Z,19.50
2023-02-15T13:52:19.679Z,17.15
2023-02-15T13:55:20.417Z,15.60
2023-02-15T13:57:59.222Z,16.92
2023-02-15T14:00:45.640Z,17.23
2023-02-15T14:03:18.056Z,17.33
2023-02-15T14:06:06.403Z,17.25
2023-02-15T14:08:46.540Z,17.38
2023-02-15T14:11:39.804Z,17.55
2023-02-15T14:14:26.800Z,18.05
2023-02-15T14:17:07.706Z,15.88
2023-02-15T14:19:53.859Z,17.45
2023-02-15T14:22:37.015Z,16.00
2023-02-15T14:25:32.638Z,16.75
2023-02-15T14:28:08.913Z,17.17
2023-02-15T14:30:42.347Z,16.85
2023-02-15T14:33:36.871Z,16.98
2023-02-15T14:36:07.571Z,16.33
2023-02-15T14:38:58.578Z,15.50
2023-02-15T14:41:51.223Z,14.23
2023-02-15T14:47:05.246Z,13.80
2023-02-15T14:49:34.096Z,15.60
2023-02-15T14:52:12.518Z,13.98
2023-02-15T14:54:39.074Z,13.23
2023-02-15T14:57:08.243Z,11.82
2023-02-15T14:59:37.946Z,13.05
2023-02-15T15:02:14.906Z,11.95
2023-02-15T15:04:46.645Z,13.05
2023-02-15T15:07:13.257Z,12.63
2023-02-15T15:09:43.034Z,12.25
2023-02-15T15:12:21.865Z,11.25
2023-02-15T15:14:49.441Z,11.27
2023-02-15T15:17:34.987Z,11.07
2023-02-15T15:20:14.669Z,11.63
2023-02-15T15:22:43.482Z,11.02
2023-02-15T15:25:38.581Z,11.55
2023-02-15T15:28:07.206Z,11.13
2023-02-15T15:30:33.779Z,10.73
2023-02-15T15:33:18.776Z,12.20
2023-02-15T15:36:04.152Z,11.00
2023-02-15T15:39:13.759Z,11.52
2023-02-15T15:41:54.365Z,12.35
2023-02-15T15:44:23.993Z,11.55
2023-02-15T15:47:05.730Z,10.98
2023-02-15T15:49:37.691Z,11.20
2023-02-15T15:52:14.661Z,12.85
2023-02-15T15:54:43.062Z,8.93
2023-02-15T15:57:23.099Z,10.50
2023-02-15T15:59:50.624Z,10.68
2023-02-15T16:02:18.384Z,11.57
2023-02-15T16:04:47.152Z,10.70
2023-02-15T16:07:19.639Z,11.07
2023-02-15T16:10:05.214Z,10.85
2023-02-15T16:12:34.723Z,11.10
2023-02-15T16:15:16.190Z,10.88
2023-02-15T16:17:45.479Z,9.75
2023-02-15T16:20:22.801Z,11.25
2023-02-15T16:22:56.117Z,10.80
2023-02-15T16:25:36.744Z,11.13
2023-02-15T16:28:13.054Z,10.70
2023-02-15T16:30:40.851Z,10.77
2023-02-15T16:33:10.130Z,11.50
2023-02-15T16:35:39.314Z,10.93
2023-02-15T16:38:09.659Z,11.13
2023-02-15T16:40:46.756Z,11.57
2023-02-15T16:43:21.478Z,11.25
2023-02-15T16:45:48.630Z,12.20
2023-02-15T16:48:26.666Z,11.15
2023-02-15T16:50:57.056Z,12.25
2023-02-15T16:53:29.197Z,11.85
2023-02-15T16:55:59.917Z,12.02
2023-02-15T16:58:41.582Z,13.30
2023-02-15T17:01:10.989Z,13.03
2023-02-15T17:03:38.509Z,12.30
2023-02-15T17:06:23.029Z,13.57
2023-02-15T17:08:49.808Z,13.93
2023-02-15T17:11:19.687Z,13.63
2023-02-15T17:14:05.030Z,14.52
2023-02-15T17:16:34.515Z,13.40
2023-02-15T17:19:14.014Z,14.25
2023-02-15T17:21:54.135Z,13.63
2023-02-15T17:24:40.008Z,13.75
2023-02-15T17:27:15.386Z,15.48
2023-02-15T17:29:48.159Z,15.50
2023-02-15T17:32:21.694Z,17.30
2023-02-15T17:35:20.053Z,17.58
2023-02-15T17:37:49.661Z,16.33
2023-02-15T17:40:16.190Z,16.27
2023-02-15T17:42:42.795Z,16.50
2023-02-15T17:45:11.968Z,15.38
2023-02-15T17:47:41.188Z,15.07
2023-02-15T17:50:16.657Z,15.93
2023-02-15T17:52:43.313Z,15.18
2023-02-15T17:55:34.010Z,14.68
2023-02-15T17:58:01.388Z,15.95
2023-02-15T18:00:46.823Z,17.30
2023-02-15T18:03:31.993Z,19.05
2023-02-15T18:06:17.302Z,18.60
2023-02-15T18:09:02.740Z,18.42
2023-02-15T18:11:38.595Z,18.55
2023-02-15T18:14:07.283Z,23.73
2023-02-15T18:16:40.885Z,26.42
2023-02-15T18:19:14.067Z,28.50
2023-02-15T18:21:40.826Z,26.30
2023-02-15T18:24:16.288Z,31.27
2023-02-15T18:26:42.934Z,36.85
2023-02-15T18:29:09.565Z,32.80
2023-02-15T18:31:36.477Z,32.47
2023-02-15T18:34:03.492Z,32.00
2023-02-15T18:36:48.838Z,34.33
2023-02-15T18:39:43.847Z,35.05
2023-02-15T18:42:19.061Z,35.53
2023-02-15T18:44:45.652Z,33.38
2023-02-15T18:47:12.248Z,32.65
2023-02-15T18:49:38.951Z,35.50
2023-02-15T18:52:06.068Z,36.60
2023-02-15T18:54:32.756Z,33.65
2023-02-15T18:57:01.577Z,33.08
2023-02-15T18:59:30.421Z,32.63
2023-02-15T19:01:58.702Z,33.13
2023-02-15T19:04:25.989Z,31.35
2023-02-15T19:06:52.989Z,31.55
2023-02-15T19:09:23.050Z,32.15
2023-02-15T19:11:52.979Z,31.65
2023-02-15T19:14:31.208Z,31.65
2023-02-15T19:16:59.254Z,31.98
2023-02-15T19:19:26.770Z,30.27
2023-02-15T19:21:53.983Z,28.80
2023-02-15T19:24:37.598Z,30.50
2023-02-15T19:27:04.663Z,30.48
2023-02-15T19:29:31.495Z,28.60
2023-02-15T19:31:58.678Z,29.38
2023-02-15T19:34:25.391Z,29.67
2023-02-15T19:36:54.373Z,27.98
2023-02-15T19:39:27.921Z,28.63
2023-02-15T19:41:55.367Z,27.90
2023-02-15T19:44:22.508Z,28.00
2023-02-15T19:46:49.248Z,26.58
2023-02-15T19:49:15.861Z,26.88
2023-02-15T19:51:42.849Z,26.80
2023-02-15T19:54:20.836Z,27.13
2023-02-15T19:56:47.463Z,27.00
2023-02-15T19:59:31.830Z,26.33
2023-02-15T20:01:58.986Z,26.23
2023-02-15T20:04:26.172Z,27.98
2023-02-15T20:06:55.990Z,28.05
2023-02-15T20:09:25.873Z,27.48
2023-02-15T20:11:53.375Z,29.20
2023-02-15T20:14:21.283Z,27.02
2023-02-15T20:16:48.262Z,27.42
2023-02-15T20:19:14.870Z,30.35
2023-02-15T20:21:43.940Z,28.25
2023-02-15T20:24:22.034Z,28.02
2023-02-15T20:26:48.668Z,28.63
2023-02-15T20:29:18.513Z,29.17
2023-02-15T20:31:45.565Z,28.00
2023-02-15T20:34:12.325Z,28.83
2023-02-15T20:36:40.103Z,28.85
2023-02-15T20:39:16.607Z,30.58
2023-02-15T20:41:47.839Z,29.42
2023-02-15T20:44:20.727Z,29.00
2023-02-15T20:46:48.659Z,29.40
2023-02-15T20:49:15.434Z,30.38
2023-02-15T20:51:44.388Z,30.50
2023-02-15T20:54:16.297Z,30.58
2023-02-15T20:56:43.474Z,31.00
2023-02-15T20:59:33.219Z,30.23
2023-02-15T21:02:22.996Z,31.98
2023-02-15T21:04:49.831Z,29.67
2023-02-15T21:07:19.700Z,32.00
2023-02-15T21:09:46.493Z,32.55
2023-02-15T21:12:18.409Z,31.90
2023-02-15T21:14:45.546Z,34.63
2023-02-15T21:17:13.863Z,34.03
2023-02-15T21:19:41.523Z,35.45
2023-02-15T21:22:13.648Z,36.80
2023-02-15T21:24:47.792Z,35.60
2023-02-15T21:27:14.944Z,34.63
2023-02-15T21:29:41.518Z,39.03
2023-02-15T21:32:10.099Z,39.75
2023-02-15T21:34:36.724Z,39.50
2023-02-15T21:37:03.319Z,38.65
2023-02-15T21:39:34.693Z,39.17
2023-02-15T21:42:19.900Z,36.75
2023-02-15T21:45:05.147Z,39.70
2023-02-15T21:47:50.429Z,39.97
2023-02-15T21:50:38.992Z,37.33
2023-02-15T21:53:07.727Z,37.97
2023-02-15T21:55:34.393Z,40.88
2023-02-15T21:58:01.753Z,42.33
2023-02-15T22:00:29.423Z,40.78
2023-02-15T22:02:59.475Z,41.35
2023-02-15T22:05:29.822Z,42.58
2023-02-15T22:07:57.322Z,42.05
2023-02-15T22:10:28.805Z,41.58
2023-02-15T22:12:55.947Z,42.63
2023-02-15T22:15:26.207Z,40.13
2023-02-15T22:17:55.649Z,39.72
2023-02-15T22:20:24.481Z,39.22
2023-02-15T22:22:52.475Z,40.53
2023-02-15T22:25:22.277Z,41.13
2023-02-15T22:27:50.402Z,42.38
2023-02-15T22:30:20.121Z,42.67
2023-02-15T22:32:46.944Z,41.35
2023-02-15T22:35:20.191Z,42.90
2023-02-15T22:37:46.743Z,41.65
2023-02-15T22:40:15.593Z,43.38
2023-02-15T22:42:46.115Z,41.40
2023-02-15T22:45:17.922Z,41.33
2023-02-15T22:47:45.906Z,41.42
2023-02-15T22:50:31.045Z,41.42
2023-02-15T22:53:00.867Z,40.63
2023-02-15T22:55:32.175Z,41.40
2023-02-15T22:57:59.477Z,40.47
2023-02-15T23:00:29.314Z,40.08
2023-02-15T23:02:56.102Z,38.58
2023-02-15T23:05:27.956Z,40.00
2023-02-15T23:07:55.114Z,39.65
2023-02-15T23:10:24.469Z,38.55
2023-02-15T23:13:12.902Z,38.65
2023-02-15T23:15:40.588Z,39.85
2023-02-15T23:18:48.104Z,38.03
2023-02-15T23:21:29.673Z,37.45
2023-02-15T23:24:02.145Z,35.75
2023-02-15T23:29:00.497Z,37.42
2023-02-15T23:31:30.355Z,38.28
2023-02-15T23:33:57.751Z,36.78
2023-02-15T23:36:28.405Z,36.78
2023-02-15T23:39:25.452Z,36.45
2023-02-15T23:41:52.149Z,38.55
2023-02-15T23:44:20.316Z,39.40
2023-02-15T23:46:48.944Z,37.28
2023-02-15T23:49:18.303Z,35.97
2023-02-15T23:51:52.452Z,36.83
2023-02-15T23:54:21.992Z,35.78
2023-02-15T23:56:52.348Z,34.92
2023-02-15T23:59:22.139Z,37.72
